sensor_id;sensor_type;location;lat;lon;timestamp;temperature;humidity
46492;DHT22;32206;51.446;6.792;2022-12-10T00:01:21;1.30;99.90
46492;DHT22;32206;51.446;6.792;2022-12-10T00:03:47;1.30;99.90
46492;DHT22;32206;51.446;6.792;2022-12-10T00:06:15;1.30;99.90
46492;DHT22;32206;51.446;6.792;2022-12-10T00:08:41;1.80;99.90
46492;DHT22;32206;51.446;6.792;2022-12-10T00:11:09;1.20;99.90
46492;DHT22;32206;51.446;6.792;2022-12-10T00:13:36;1.30;99.90
46492;DHT22;32206;51.446;6.792;2022-12-10T00:16:03;1.20;99.90
46492;DHT22;32206;51.446;6.792;2022-12-10T00:18:29;1.20;99.90
46492;DHT22;32206;51.446;6.792;2022-12-10T00:20:55;1.10;99.90
46492;DHT22;32206;51.446;6.792;2022-12-10T00:23:20;1.10;99.90
46492;DHT22;32206;51.446;6.792;2022-12-10T00:25:46;1.00;99.90
46492;DHT22;32206;51.446;6.792;2022-12-10T00:28:12;1.40;99.90
46492;DHT22;32206;51.446;6.792;2022-12-10T00:30:37;0.90;99.90
46492;DHT22;32206;51.446;6.792;2022-12-10T00:33:03;0.90;99.90
46492;DHT22;32206;51.446;6.792;2022-12-10T00:35:29;0.90;99.90
46492;DHT22;32206;51.446;6.792;2022-12-10T00:37:54;0.90;99.90
46492;DHT22;32206;51.446;6.792;2022-12-10T00:40:20;0.90;99.90
46492;DHT22;32206;51.446;6.792;2022-12-10T00:42:46;0.90;99.90
46492;DHT22;32206;51.446;6.792;2022-12-10T00:45:12;0.90;99.90
46492;DHT22;32206;51.446;6.792;2022-12-10T00:47:37;0.80;99.90
46492;DHT22;32206;51.446;6.792;2022-12-10T00:50:03;0.70;99.90
46492;DHT22;32206;51.446;6.792;2022-12-10T00:52:29;0.70;99.90
46492;DHT22;32206;51.446;6.792;2022-12-10T00:54:54;0.60;99.90
46492;DHT22;32206;51.446;6.792;2022-12-10T00:57:20;0.60;99.90
46492;DHT22;32206;51.446;6.792;2022-12-10T00:59:45;0.60;99.90
46492;DHT22;32206;51.446;6.792;2022-12-10T01:02:11;1.00;99.90
46492;DHT22;32206;51.446;6.792;2022-12-10T01:04:37;0.60;99.90
46492;DHT22;32206;51.446;6.792;2022-12-10T01:07:02;0.50;99.90
46492;DHT22;32206;51.446;6.792;2022-12-10T01:09:29;0.50;99.90
46492;DHT22;32206;51.446;6.792;2022-12-10T01:11:57;0.40;99.90
46492;DHT22;32206;51.446;6.792;2022-12-10T01:14:31;0.40;99.90
46492;DHT22;32206;51.446;6.792;2022-12-10T01:17:03;0.30;99.90
46492;DHT22;32206;51.446;6.792;2022-12-10T01:19:29;0.30;99.90
46492;DHT22;32206;51.446;6.792;2022-12-10T01:21:56;0.30;99.90
46492;DHT22;32206;51.446;6.792;2022-12-10T01:24:23;0.30;99.90
46492;DHT22;32206;51.446;6.792;2022-12-10T01:26:49;0.20;99.90
46492;DHT22;32206;51.446;6.792;2022-12-10T01:29:15;0.20;99.90
46492;DHT22;32206;51.446;6.792;2022-12-10T01:31:41;0.20;99.90
46492;DHT22;32206;51.446;6.792;2022-12-10T01:34:11;0.20;99.90
46492;DHT22;32206;51.446;6.792;2022-12-10T01:36:41;0.20;99.90
46492;DHT22;32206;51.446;6.792;2022-12-10T01:39:09;0.10;99.90
46492;DHT22;32206;51.446;6.792;2022-12-10T01:41:38;0.10;99.90
46492;DHT22;32206;51.446;6.792;2022-12-10T01:46:38;0.00;99.90
46492;DHT22;32206;51.446;6.792;2022-12-10T01:49:06;0.30;99.90
46492;DHT22;32206;51.446;6.792;2022-12-10T01:51:34;-0.10;99.90
46492;DHT22;32206;51.446;6.792;2022-12-10T01:54:01;-0.10;99.90
46492;DHT22;32206;51.446;6.792;2022-12-10T01:56:27;-0.10;99.90
46492;DHT22;32206;51.446;6.792;2022-12-10T01:58:55;-0.10;99.90
46492;DHT22;32206;51.446;6.792;2022-12-10T02:01:30;-0.10;99.90
46492;DHT22;32206;51.446;6.792;2022-12-10T02:07:26;-0.10;99.90
46492;DHT22;32206;51.446;6.792;2022-12-10T02:10:11;-0.10;99.90
46492;DHT22;32206;51.446;6.792;2022-12-10T02:12:53;-0.20;99.90
46492;DHT22;32206;51.446;6.792;2022-12-10T02:15:23;-0.20;99.90
46492;DHT22;32206;51.446;6.792;2022-12-10T02:17:55;-0.20;99.90
46492;DHT22;32206;51.446;6.792;2022-12-10T02:23:09;-0.30;99.90
46492;DHT22;32206;51.446;6.792;2022-12-10T02:25:58;-0.30;99.90
46492;DHT22;32206;51.446;6.792;2022-12-10T02:30:58;-0.40;99.90
46492;DHT22;32206;51.446;6.792;2022-12-10T02:33:25;-0.40;99.90
46492;DHT22;32206;51.446;6.792;2022-12-10T02:35:53;-0.40;99.90
46492;DHT22;32206;51.446;6.792;2022-12-10T02:38:40;-0.40;99.90
46492;DHT22;32206;51.446;6.792;2022-12-10T02:41:10;-0.40;99.90
46492;DHT22;32206;51.446;6.792;2022-12-10T02:43:39;0.40;99.90
46492;DHT22;32206;51.446;6.792;2022-12-10T02:46:06;-0.40;99.90
46492;DHT22;32206;51.446;6.792;2022-12-10T02:48:33;-0.40;99.90
46492;DHT22;32206;51.446;6.792;2022-12-10T02:50:59;-0.40;99.90
46492;DHT22;32206;51.446;6.792;2022-12-10T02:53:25;-0.40;99.90
46492;DHT22;32206;51.446;6.792;2022-12-10T02:56:20;-0.40;99.90
46492;DHT22;32206;51.446;6.792;2022-12-10T02:59:15;-0.40;99.90
46492;DHT22;32206;51.446;6.792;2022-12-10T03:02:02;-0.40;99.90
46492;DHT22;32206;51.446;6.792;2022-12-10T03:04:59;-0.40;99.90
46492;DHT22;32206;51.446;6.792;2022-12-10T03:13:26;-0.30;99.90
46492;DHT22;32206;51.446;6.792;2022-12-10T03:15:54;-0.30;99.90
46492;DHT22;32206;51.446;6.792;2022-12-10T03:18:23;-0.20;99.90
46492;DHT22;32206;51.446;6.792;2022-12-10T03:20:50;-0.20;99.90
46492;DHT22;32206;51.446;6.792;2022-12-10T03:23:18;-0.20;99.90
46492;DHT22;32206;51.446;6.792;2022-12-10T03:25:47;-0.20;99.90
46492;DHT22;32206;51.446;6.792;2022-12-10T03:28:14;-0.20;99.90
46492;DHT22;32206;51.446;6.792;2022-12-10T03:30:42;-0.20;99.90
46492;DHT22;32206;51.446;6.792;2022-12-10T03:33:08;0.30;99.90
46492;DHT22;32206;51.446;6.792;2022-12-10T03:35:34;-0.10;99.90
46492;DHT22;32206;51.446;6.792;2022-12-10T03:38:01;-0.10;99.90
46492;DHT22;32206;51.446;6.792;2022-12-10T03:40:27;-0.10;99.90
46492;DHT22;32206;51.446;6.792;2022-12-10T03:42:52;-0.10;99.90
46492;DHT22;32206;51.446;6.792;2022-12-10T03:45:18;0.00;99.90
46492;DHT22;32206;51.446;6.792;2022-12-10T03:47:44;0.00;99.90
46492;DHT22;32206;51.446;6.792;2022-12-10T03:50:10;0.00;99.90
46492;DHT22;32206;51.446;6.792;2022-12-10T03:52:36;0.00;99.90
46492;DHT22;32206;51.446;6.792;2022-12-10T03:55:02;0.00;99.90
46492;DHT22;32206;51.446;6.792;2022-12-10T03:57:28;0.10;99.90
46492;DHT22;32206;51.446;6.792;2022-12-10T03:59:54;0.10;99.90
46492;DHT22;32206;51.446;6.792;2022-12-10T04:02:20;0.10;99.90
46492;DHT22;32206;51.446;6.792;2022-12-10T04:04:45;0.10;99.90
46492;DHT22;32206;51.446;6.792;2022-12-10T04:07:11;0.10;99.90
46492;DHT22;32206;51.446;6.792;2022-12-10T04:09:36;0.10;99.90
46492;DHT22;32206;51.446;6.792;2022-12-10T04:12:02;0.10;99.90
46492;DHT22;32206;51.446;6.792;2022-12-10T04:14:28;0.10;99.90
46492;DHT22;32206;51.446;6.792;2022-12-10T04:17:12;0.10;99.90
46492;DHT22;32206;51.446;6.792;2022-12-10T04:19:38;0.00;99.90
46492;DHT22;32206;51.446;6.792;2022-12-10T04:22:04;0.00;99.90
46492;DHT22;32206;51.446;6.792;2022-12-10T04:24:48;0.10;99.90
46492;DHT22;32206;51.446;6.792;2022-12-10T04:27:35;0.10;99.90
46492;DHT22;32206;51.446;6.792;2022-12-10T04:30:02;0.10;99.90
46492;DHT22;32206;51.446;6.792;2022-12-10T04:32:29;0.00;99.90
46492;DHT22;32206;51.446;6.792;2022-12-10T04:34:55;0.60;99.90
46492;DHT22;32206;51.446;6.792;2022-12-10T04:37:21;0.00;99.90
46492;DHT22;32206;51.446;6.792;2022-12-10T04:39:48;-0.10;99.90
46492;DHT22;32206;51.446;6.792;2022-12-10T04:42:14;-0.10;99.90
46492;DHT22;32206;51.446;6.792;2022-12-10T04:44:40;-0.10;99.90
46492;DHT22;32206;51.446;6.792;2022-12-10T04:47:07;-0.10;99.90
46492;DHT22;32206;51.446;6.792;2022-12-10T04:49:33;0.00;99.90
46492;DHT22;32206;51.446;6.792;2022-12-10T04:51:59;0.00;99.90
46492;DHT22;32206;51.446;6.792;2022-12-10T04:54:26;-0.10;99.90
46492;DHT22;32206;51.446;6.792;2022-12-10T04:56:51;-0.10;99.90
46492;DHT22;32206;51.446;6.792;2022-12-10T04:59:17;-0.10;99.90
46492;DHT22;32206;51.446;6.792;2022-12-10T05:01:43;0.00;99.90
46492;DHT22;32206;51.446;6.792;2022-12-10T05:04:12;0.10;99.90
46492;DHT22;32206;51.446;6.792;2022-12-10T05:06:39;0.10;99.90
46492;DHT22;32206;51.446;6.792;2022-12-10T05:09:05;0.00;99.90
46492;DHT22;32206;51.446;6.792;2022-12-10T05:11:32;-0.10;99.90
46492;DHT22;32206;51.446;6.792;2022-12-10T05:13:59;-0.10;99.90
46492;DHT22;32206;51.446;6.792;2022-12-10T05:16:27;-0.20;99.90
46492;DHT22;32206;51.446;6.792;2022-12-10T05:18:55;-0.20;99.90
46492;DHT22;32206;51.446;6.792;2022-12-10T05:21:22;-0.30;99.90
46492;DHT22;32206;51.446;6.792;2022-12-10T05:23:50;-0.40;99.90
46492;DHT22;32206;51.446;6.792;2022-12-10T05:26:22;-0.40;99.90
46492;DHT22;32206;51.446;6.792;2022-12-10T05:28:55;-0.60;99.90
46492;DHT22;32206;51.446;6.792;2022-12-10T05:31:22;-0.50;99.90
46492;DHT22;32206;51.446;6.792;2022-12-10T05:33:49;-0.50;99.90
46492;DHT22;32206;51.446;6.792;2022-12-10T05:36:17;-0.40;99.90
46492;DHT22;32206;51.446;6.792;2022-12-10T05:38:43;-0.50;99.90
46492;DHT22;32206;51.446;6.792;2022-12-10T05:41:12;-0.50;99.90
46492;DHT22;32206;51.446;6.792;2022-12-10T05:43:39;-0.50;99.90
46492;DHT22;32206;51.446;6.792;2022-12-10T05:46:07;-0.30;99.90
46492;DHT22;32206;51.446;6.792;2022-12-10T05:48:35;-0.40;99.90
46492;DHT22;32206;51.446;6.792;2022-12-10T05:51:08;-0.40;99.90
46492;DHT22;32206;51.446;6.792;2022-12-10T05:53:35;-0.50;99.90
46492;DHT22;32206;51.446;6.792;2022-12-10T05:56:03;-0.50;99.90
46492;DHT22;32206;51.446;6.792;2022-12-10T05:58:29;-0.50;99.90
46492;DHT22;32206;51.446;6.792;2022-12-10T06:00:56;-0.50;99.90
46492;DHT22;32206;51.446;6.792;2022-12-10T06:03:21;-0.40;99.90
46492;DHT22;32206;51.446;6.792;2022-12-10T06:05:47;-0.30;99.90
46492;DHT22;32206;51.446;6.792;2022-12-10T06:08:13;-0.40;99.90
46492;DHT22;32206;51.446;6.792;2022-12-10T06:10:38;-0.30;99.90
46492;DHT22;32206;51.446;6.792;2022-12-10T06:13:04;-0.30;99.90
46492;DHT22;32206;51.446;6.792;2022-12-10T06:15:30;-0.20;99.90
46492;DHT22;32206;51.446;6.792;2022-12-10T06:17:56;-0.20;99.90
46492;DHT22;32206;51.446;6.792;2022-12-10T06:20:23;0.20;99.90
46492;DHT22;32206;51.446;6.792;2022-12-10T06:22:49;-0.20;99.90
46492;DHT22;32206;51.446;6.792;2022-12-10T06:25:15;-0.20;99.90
46492;DHT22;32206;51.446;6.792;2022-12-10T06:27:41;-0.10;99.90
46492;DHT22;32206;51.446;6.792;2022-12-10T06:30:07;-0.20;99.90
46492;DHT22;32206;51.446;6.792;2022-12-10T06:32:32;-0.20;99.90
46492;DHT22;32206;51.446;6.792;2022-12-10T06:34:58;-0.20;99.90
46492;DHT22;32206;51.446;6.792;2022-12-10T06:37:24;-0.30;99.90
46492;DHT22;32206;51.446;6.792;2022-12-10T06:39:52;-0.30;99.90
46492;DHT22;32206;51.446;6.792;2022-12-10T06:42:21;-0.30;99.90
46492;DHT22;32206;51.446;6.792;2022-12-10T06:44:47;-0.30;99.90
46492;DHT22;32206;51.446;6.792;2022-12-10T06:47:13;-0.20;99.90
46492;DHT22;32206;51.446;6.792;2022-12-10T06:49:40;-0.30;99.90
46492;DHT22;32206;51.446;6.792;2022-12-10T06:52:06;-0.30;99.90
46492;DHT22;32206;51.446;6.792;2022-12-10T06:54:32;-0.30;99.90
46492;DHT22;32206;51.446;6.792;2022-12-10T06:56:58;-0.40;99.90
46492;DHT22;32206;51.446;6.792;2022-12-10T06:59:24;-0.40;99.90
46492;DHT22;32206;51.446;6.792;2022-12-10T07:01:49;-0.40;99.90
46492;DHT22;32206;51.446;6.792;2022-12-10T07:04:15;-0.30;99.90
46492;DHT22;32206;51.446;6.792;2022-12-10T07:06:41;-0.30;99.90
46492;DHT22;32206;51.446;6.792;2022-12-10T07:09:07;-0.30;99.90
46492;DHT22;32206;51.446;6.792;2022-12-10T07:11:32;-0.30;99.90
46492;DHT22;32206;51.446;6.792;2022-12-10T07:13:58;-0.30;99.90
46492;DHT22;32206;51.446;6.792;2022-12-10T07:16:28;0.10;99.90
46492;DHT22;32206;51.446;6.792;2022-12-10T07:18:59;-0.40;99.90
46492;DHT22;32206;51.446;6.792;2022-12-10T07:21:30;-0.40;99.90
46492;DHT22;32206;51.446;6.792;2022-12-10T07:23:59;-0.30;99.90
46492;DHT22;32206;51.446;6.792;2022-12-10T07:26:29;-0.30;99.90
46492;DHT22;32206;51.446;6.792;2022-12-10T07:28:56;-0.40;99.90
46492;DHT22;32206;51.446;6.792;2022-12-10T07:31:22;-0.30;99.90
46492;DHT22;32206;51.446;6.792;2022-12-10T07:33:49;-0.20;99.90
46492;DHT22;32206;51.446;6.792;2022-12-10T07:36:15;-0.30;99.90
46492;DHT22;32206;51.446;6.792;2022-12-10T07:38:41;-0.20;99.90
46492;DHT22;32206;51.446;6.792;2022-12-10T07:41:09;0.10;99.90
46492;DHT22;32206;51.446;6.792;2022-12-10T07:43:40;-0.20;99.90
46492;DHT22;32206;51.446;6.792;2022-12-10T07:46:09;-0.20;99.90
46492;DHT22;32206;51.446;6.792;2022-12-10T07:48:37;-0.20;99.90
46492;DHT22;32206;51.446;6.792;2022-12-10T07:51:03;-0.20;99.90
46492;DHT22;32206;51.446;6.792;2022-12-10T07:53:29;-0.30;99.90
46492;DHT22;32206;51.446;6.792;2022-12-10T07:55:54;-0.30;99.90
46492;DHT22;32206;51.446;6.792;2022-12-10T07:58:20;-0.30;99.90
46492;DHT22;32206;51.446;6.792;2022-12-10T08:00:45;-0.30;99.90
46492;DHT22;32206;51.446;6.792;2022-12-10T08:03:11;-0.40;99.90
46492;DHT22;32206;51.446;6.792;2022-12-10T08:05:38;-0.50;99.90
46492;DHT22;32206;51.446;6.792;2022-12-10T08:08:04;-0.50;99.90
46492;DHT22;32206;51.446;6.792;2022-12-10T08:10:29;-0.50;99.90
46492;DHT22;32206;51.446;6.792;2022-12-10T08:12:55;-0.60;99.90
46492;DHT22;32206;51.446;6.792;2022-12-10T08:15:21;-0.60;99.90
46492;DHT22;32206;51.446;6.792;2022-12-10T08:17:46;-0.60;99.90
46492;DHT22;32206;51.446;6.792;2022-12-10T08:20:12;-0.60;99.90
46492;DHT22;32206;51.446;6.792;2022-12-10T08:22:38;-0.70;99.90
46492;DHT22;32206;51.446;6.792;2022-12-10T08:25:04;-0.60;99.90
46492;DHT22;32206;51.446;6.792;2022-12-10T08:27:30;-0.70;99.90
46492;DHT22;32206;51.446;6.792;2022-12-10T08:29:56;-0.70;99.90
46492;DHT22;32206;51.446;6.792;2022-12-10T08:32:22;-0.20;99.90
46492;DHT22;32206;51.446;6.792;2022-12-10T08:34:47;-0.70;99.90
46492;DHT22;32206;51.446;6.792;2022-12-10T08:37:14;-0.60;99.90
46492;DHT22;32206;51.446;6.792;2022-12-10T08:39:39;-0.70;99.90
46492;DHT22;32206;51.446;6.792;2022-12-10T08:42:05;-0.80;99.90
46492;DHT22;32206;51.446;6.792;2022-12-10T08:44:31;-0.80;99.90
46492;DHT22;32206;51.446;6.792;2022-12-10T08:46:57;-0.30;99.90
46492;DHT22;32206;51.446;6.792;2022-12-10T08:49:23;-0.80;99.90
46492;DHT22;32206;51.446;6.792;2022-12-10T08:51:48;-0.70;99.90
46492;DHT22;32206;51.446;6.792;2022-12-10T08:54:14;-0.80;99.90
46492;DHT22;32206;51.446;6.792;2022-12-10T08:56:40;-0.90;99.90
46492;DHT22;32206;51.446;6.792;2022-12-10T08:59:06;-0.90;99.90
46492;DHT22;32206;51.446;6.792;2022-12-10T09:01:32;-0.80;99.90
46492;DHT22;32206;51.446;6.792;2022-12-10T09:03:58;-0.90;99.90
46492;DHT22;32206;51.446;6.792;2022-12-10T09:06:25;-0.80;99.90
46492;DHT22;32206;51.446;6.792;2022-12-10T09:08:52;-0.80;99.90
46492;DHT22;32206;51.446;6.792;2022-12-10T09:11:29;-0.70;99.90
46492;DHT22;32206;51.446;6.792;2022-12-10T09:13:55;-0.70;99.90
46492;DHT22;32206;51.446;6.792;2022-12-10T09:16:21;-0.70;99.90
46492;DHT22;32206;51.446;6.792;2022-12-10T09:18:52;-0.70;99.90
46492;DHT22;32206;51.446;6.792;2022-12-10T09:21:17;-0.60;99.90
46492;DHT22;32206;51.446;6.792;2022-12-10T09:23:44;-0.60;99.90
46492;DHT22;32206;51.446;6.792;2022-12-10T09:26:12;-0.60;99.90
46492;DHT22;32206;51.446;6.792;2022-12-10T09:28:38;-0.60;99.90
46492;DHT22;32206;51.446;6.792;2022-12-10T09:31:05;-0.60;99.90
46492;DHT22;32206;51.446;6.792;2022-12-10T09:33:31;-0.70;99.90
46492;DHT22;32206;51.446;6.792;2022-12-10T09:35:58;-0.70;99.90
46492;DHT22;32206;51.446;6.792;2022-12-10T09:38:24;-0.80;99.90
46492;DHT22;32206;51.446;6.792;2022-12-10T09:43:28;-0.80;99.90
46492;DHT22;32206;51.446;6.792;2022-12-10T09:51:36;-0.70;99.90
46492;DHT22;32206;51.446;6.792;2022-12-10T09:54:11;-0.80;99.90
46492;DHT22;32206;51.446;6.792;2022-12-10T09:56:40;-0.70;99.90
46492;DHT22;32206;51.446;6.792;2022-12-10T10:00:00;-0.80;99.90
46492;DHT22;32206;51.446;6.792;2022-12-10T10:02:26;-0.80;99.90
46492;DHT22;32206;51.446;6.792;2022-12-10T10:05:01;-0.60;99.90
46492;DHT22;32206;51.446;6.792;2022-12-10T10:07:31;-0.60;99.90
46492;DHT22;32206;51.446;6.792;2022-12-10T10:10:02;-0.60;99.90
46492;DHT22;32206;51.446;6.792;2022-12-10T10:12:28;-0.60;99.90
46492;DHT22;32206;51.446;6.792;2022-12-10T10:14:55;-0.60;99.90
46492;DHT22;32206;51.446;6.792;2022-12-10T10:17:33;-0.50;99.90
46492;DHT22;32206;51.446;6.792;2022-12-10T10:20:00;-0.50;99.90
46492;DHT22;32206;51.446;6.792;2022-12-10T10:22:26;-0.50;99.90
46492;DHT22;32206;51.446;6.792;2022-12-10T10:24:52;-0.50;99.90
46492;DHT22;32206;51.446;6.792;2022-12-10T10:27:23;-0.50;99.90
46492;DHT22;32206;51.446;6.792;2022-12-10T10:29:54;-0.60;99.90
46492;DHT22;32206;51.446;6.792;2022-12-10T10:35:04;-0.50;99.90
46492;DHT22;32206;51.446;6.792;2022-12-10T10:37:41;-0.40;99.90
46492;DHT22;32206;51.446;6.792;2022-12-10T10:40:26;-0.40;99.90
46492;DHT22;32206;51.446;6.792;2022-12-10T10:42:55;-0.40;99.90
46492;DHT22;32206;51.446;6.792;2022-12-10T10:48:19;-0.50;99.90
46492;DHT22;32206;51.446;6.792;2022-12-10T10:50:48;-0.50;99.90
46492;DHT22;32206;51.446;6.792;2022-12-10T10:56:04;-0.40;99.90
46492;DHT22;32206;51.446;6.792;2022-12-10T10:58:30;-0.40;99.90
46492;DHT22;32206;51.446;6.792;2022-12-10T11:01:06;-0.30;99.90
46492;DHT22;32206;51.446;6.792;2022-12-10T11:03:33;0.00;99.90
46492;DHT22;32206;51.446;6.792;2022-12-10T11:06:02;-0.20;99.90
46492;DHT22;32206;51.446;6.792;2022-12-10T11:08:30;-0.20;99.90
46492;DHT22;32206;51.446;6.792;2022-12-10T11:11:05;-0.10;99.90
46492;DHT22;32206;51.446;6.792;2022-12-10T11:13:34;-0.10;99.90
46492;DHT22;32206;51.446;6.792;2022-12-10T11:18:59;0.10;99.90
46492;DHT22;32206;51.446;6.792;2022-12-10T11:21:29;0.20;99.90
46492;DHT22;32206;51.446;6.792;2022-12-10T11:23:56;0.20;99.90
46492;DHT22;32206;51.446;6.792;2022-12-10T11:26:47;0.20;99.90
46492;DHT22;32206;51.446;6.792;2022-12-10T11:32:33;0.10;99.90
46492;DHT22;32206;51.446;6.792;2022-12-10T11:35:12;0.10;99.90
46492;DHT22;32206;51.446;6.792;2022-12-10T11:40:49;0.10;99.90
46492;DHT22;32206;51.446;6.792;2022-12-10T12:11:03;0.40;99.90
46492;DHT22;32206;51.446;6.792;2022-12-10T12:13:34;0.40;99.90
46492;DHT22;32206;51.446;6.792;2022-12-10T12:16:18;0.50;99.90
46492;DHT22;32206;51.446;6.792;2022-12-10T12:19:00;0.50;99.90
46492;DHT22;32206;51.446;6.792;2022-12-10T12:21:27;0.50;99.90
46492;DHT22;32206;51.446;6.792;2022-12-10T12:24:03;0.40;99.90
46492;DHT22;32206;51.446;6.792;2022-12-10T12:26:41;0.40;99.90
46492;DHT22;32206;51.446;6.792;2022-12-10T12:31:39;0.50;99.90
46492;DHT22;32206;51.446;6.792;2022-12-10T12:34:21;0.50;99.90
46492;DHT22;32206;51.446;6.792;2022-12-10T12:36:47;0.40;99.90
46492;DHT22;32206;51.446;6.792;2022-12-10T12:39:32;0.50;99.90
46492;DHT22;32206;51.446;6.792;2022-12-10T12:42:28;0.50;99.90
46492;DHT22;32206;51.446;6.792;2022-12-10T12:53:13;0.40;99.90
46492;DHT22;32206;51.446;6.792;2022-12-10T12:58:30;0.50;99.90
46492;DHT22;32206;51.446;6.792;2022-12-10T13:01:28;1.50;99.90
46492;DHT22;32206;51.446;6.792;2022-12-10T13:03:57;0.40;99.90
46492;DHT22;32206;51.446;6.792;2022-12-10T13:06:26;0.40;99.90
46492;DHT22;32206;51.446;6.792;2022-12-10T13:11:41;0.50;99.90
46492;DHT22;32206;51.446;6.792;2022-12-10T13:19:33;0.70;99.90
46492;DHT22;32206;51.446;6.792;2022-12-10T13:53:28;0.60;99.90
46492;DHT22;32206;51.446;6.792;2022-12-10T13:56:12;0.50;99.90
46492;DHT22;32206;51.446;6.792;2022-12-10T13:59:06;0.60;99.90
46492;DHT22;32206;51.446;6.792;2022-12-10T14:07:12;0.70;99.90
46492;DHT22;32206;51.446;6.792;2022-12-10T14:09:49;0.80;99.90
46492;DHT22;32206;51.446;6.792;2022-12-10T14:12:18;0.80;99.90
46492;DHT22;32206;51.446;6.792;2022-12-10T14:14:52;0.80;99.90
46492;DHT22;32206;51.446;6.792;2022-12-10T14:17:24;0.80;99.90
46492;DHT22;32206;51.446;6.792;2022-12-10T14:19:54;0.70;99.90
46492;DHT22;32206;51.446;6.792;2022-12-10T14:22:34;0.70;99.90
46492;DHT22;32206;51.446;6.792;2022-12-10T14:25:04;0.70;99.90
46492;DHT22;32206;51.446;6.792;2022-12-10T14:27:32;0.70;99.90
46492;DHT22;32206;51.446;6.792;2022-12-10T14:30:04;0.70;99.90
46492;DHT22;32206;51.446;6.792;2022-12-10T14:32:33;0.90;99.90
46492;DHT22;32206;51.446;6.792;2022-12-10T14:35:00;0.70;99.90
46492;DHT22;32206;51.446;6.792;2022-12-10T14:37:31;0.60;99.90
46492;DHT22;32206;51.446;6.792;2022-12-10T14:39:57;0.70;99.90
46492;DHT22;32206;51.446;6.792;2022-12-10T14:42:23;0.90;99.90
46492;DHT22;32206;51.446;6.792;2022-12-10T14:45:00;0.80;99.90
46492;DHT22;32206;51.446;6.792;2022-12-10T14:47:32;0.70;99.90
46492;DHT22;32206;51.446;6.792;2022-12-10T14:50:01;0.60;99.90
46492;DHT22;32206;51.446;6.792;2022-12-10T14:52:43;0.60;99.90
46492;DHT22;32206;51.446;6.792;2022-12-10T14:55:18;0.60;99.90
46492;DHT22;32206;51.446;6.792;2022-12-10T14:57:59;0.60;99.90
46492;DHT22;32206;51.446;6.792;2022-12-10T15:00:27;0.50;99.90
46492;DHT22;32206;51.446;6.792;2022-12-10T15:03:10;1.00;99.90
46492;DHT22;32206;51.446;6.792;2022-12-10T15:05:37;0.60;99.90
46492;DHT22;32206;51.446;6.792;2022-12-10T15:08:11;0.60;99.90
46492;DHT22;32206;51.446;6.792;2022-12-10T15:10:44;0.60;99.90
46492;DHT22;32206;51.446;6.792;2022-12-10T15:15:57;0.70;99.90
46492;DHT22;32206;51.446;6.792;2022-12-10T15:18:32;0.60;99.90
46492;DHT22;32206;51.446;6.792;2022-12-10T15:23:39;0.60;99.90
46492;DHT22;32206;51.446;6.792;2022-12-10T15:26:28;0.70;99.90
46492;DHT22;32206;51.446;6.792;2022-12-10T15:32:14;0.10;99.90
46492;DHT22;32206;51.446;6.792;2022-12-10T15:34:47;0.50;99.90
46492;DHT22;32206;51.446;6.792;2022-12-10T15:37:26;0.50;99.90
46492;DHT22;32206;51.446;6.792;2022-12-10T15:39:55;0.50;99.90
46492;DHT22;32206;51.446;6.792;2022-12-10T15:42:38;0.50;99.90
46492;DHT22;32206;51.446;6.792;2022-12-10T15:47:41;0.50;99.90
46492;DHT22;32206;51.446;6.792;2022-12-10T15:50:08;0.40;99.90
46492;DHT22;32206;51.446;6.792;2022-12-10T15:52:34;0.40;99.90
46492;DHT22;32206;51.446;6.792;2022-12-10T15:55:00;1.10;99.90
46492;DHT22;32206;51.446;6.792;2022-12-10T15:57:34;0.40;99.90
46492;DHT22;32206;51.446;6.792;2022-12-10T16:00:07;0.50;99.90
46492;DHT22;32206;51.446;6.792;2022-12-10T16:05:23;0.50;99.90
46492;DHT22;32206;51.446;6.792;2022-12-10T16:07:52;0.50;99.90
46492;DHT22;32206;51.446;6.792;2022-12-10T16:10:20;0.50;99.90
46492;DHT22;32206;51.446;6.792;2022-12-10T16:12:49;0.50;99.90
46492;DHT22;32206;51.446;6.792;2022-12-10T16:15:18;0.50;99.90
46492;DHT22;32206;51.446;6.792;2022-12-10T16:17:44;0.50;99.90
46492;DHT22;32206;51.446;6.792;2022-12-10T16:22:49;0.40;99.90
46492;DHT22;32206;51.446;6.792;2022-12-10T16:25:14;0.30;99.90
46492;DHT22;32206;51.446;6.792;2022-12-10T16:27:40;0.30;99.90
46492;DHT22;32206;51.446;6.792;2022-12-10T16:30:44;0.30;99.90
46492;DHT22;32206;51.446;6.792;2022-12-10T16:33:11;0.30;99.90
46492;DHT22;32206;51.446;6.792;2022-12-10T16:35:37;0.30;99.90
46492;DHT22;32206;51.446;6.792;2022-12-10T16:38:02;0.30;99.90
46492;DHT22;32206;51.446;6.792;2022-12-10T16:40:29;0.40;99.90
46492;DHT22;32206;51.446;6.792;2022-12-10T16:42:55;0.40;99.90
46492;DHT22;32206;51.446;6.792;2022-12-10T16:45:25;0.40;99.90
46492;DHT22;32206;51.446;6.792;2022-12-10T16:47:52;0.60;99.90
46492;DHT22;32206;51.446;6.792;2022-12-10T16:50:18;0.40;99.90
46492;DHT22;32206;51.446;6.792;2022-12-10T16:52:44;0.90;99.90
46492;DHT22;32206;51.446;6.792;2022-12-10T16:55:19;0.40;99.90
46492;DHT22;32206;51.446;6.792;2022-12-10T16:57:46;0.40;99.90
46492;DHT22;32206;51.446;6.792;2022-12-10T17:00:14;0.40;99.90
46492;DHT22;32206;51.446;6.792;2022-12-10T17:02:40;0.40;99.90
46492;DHT22;32206;51.446;6.792;2022-12-10T17:05:39;0.50;99.90
46492;DHT22;32206;51.446;6.792;2022-12-10T17:08:06;0.50;99.90
46492;DHT22;32206;51.446;6.792;2022-12-10T17:10:32;0.50;99.90
46492;DHT22;32206;51.446;6.792;2022-12-10T17:13:16;0.50;99.90
46492;DHT22;32206;51.446;6.792;2022-12-10T17:15:45;0.50;99.90
46492;DHT22;32206;51.446;6.792;2022-12-10T17:18:16;0.50;99.90
46492;DHT22;32206;51.446;6.792;2022-12-10T17:20:43;0.60;99.90
46492;DHT22;32206;51.446;6.792;2022-12-10T17:23:09;0.40;99.90
46492;DHT22;32206;51.446;6.792;2022-12-10T17:25:35;0.40;99.90
46492;DHT22;32206;51.446;6.792;2022-12-10T17:28:01;0.40;99.90
46492;DHT22;32206;51.446;6.792;2022-12-10T17:30:27;0.70;99.90
46492;DHT22;32206;51.446;6.792;2022-12-10T17:32:52;0.50;99.90
46492;DHT22;32206;51.446;6.792;2022-12-10T17:35:19;0.40;99.90
46492;DHT22;32206;51.446;6.792;2022-12-10T17:37:45;0.40;99.90
46492;DHT22;32206;51.446;6.792;2022-12-10T17:40:17;0.40;99.90
46492;DHT22;32206;51.446;6.792;2022-12-10T17:42:43;0.50;99.90
46492;DHT22;32206;51.446;6.792;2022-12-10T17:45:12;0.60;99.90
46492;DHT22;32206;51.446;6.792;2022-12-10T17:47:39;0.50;99.90
46492;DHT22;32206;51.446;6.792;2022-12-10T17:50:32;0.60;99.90
46492;DHT22;32206;51.446;6.792;2022-12-10T17:53:05;0.50;99.90
46492;DHT22;32206;51.446;6.792;2022-12-10T17:55:35;0.50;99.90
46492;DHT22;32206;51.446;6.792;2022-12-10T17:58:02;0.50;99.90
46492;DHT22;32206;51.446;6.792;2022-12-10T18:00:31;0.70;99.90
46492;DHT22;32206;51.446;6.792;2022-12-10T18:03:00;0.50;99.90
46492;DHT22;32206;51.446;6.792;2022-12-10T18:05:26;0.60;99.90
46492;DHT22;32206;51.446;6.792;2022-12-10T18:07:52;0.70;99.90
46492;DHT22;32206;51.446;6.792;2022-12-10T18:10:24;0.60;99.90
46492;DHT22;32206;51.446;6.792;2022-12-10T18:12:50;0.50;99.90
46492;DHT22;32206;51.446;6.792;2022-12-10T18:15:19;0.50;99.90
46492;DHT22;32206;51.446;6.792;2022-12-10T18:17:45;0.40;99.90
46492;DHT22;32206;51.446;6.792;2022-12-10T18:20:21;0.60;99.90